createdAt,value
2017-01-12T00:00:34.286Z,924.01
2017-01-12T00:00:51.005Z,924.02
2017-01-12T00:01:07.723Z,923.96
2017-01-12T00:01:24.425Z,923.98
2017-01-12T00:01:41.716Z,923.97
2017-01-12T00:01:59.021Z,923.98
2017-01-12T00:02:15.734Z,923.96
2017-01-12T00:02:32.410Z,923.99
2017-01-12T00:02:49.103Z,923.99
2017-01-12T00:03:05.820Z,923.97
2017-01-12T00:03:22.520Z,923.95
2017-01-12T00:03:39.232Z,924
2017-01-12T00:03:55.942Z,923.97
2017-01-12T00:04:12.646Z,924.01
2017-01-12T00:04:29.396Z,923.98
2017-01-12T00:04:46.131Z,924.02
2017-01-12T00:05:03.055Z,924
2017-01-12T00:05:20.385Z,924.02
2017-01-12T00:05:37.086Z,924.03
2017-01-12T00:05:53.777Z,924.03
2017-01-12T00:06:10.505Z,924.03
2017-01-12T00:06:27.192Z,924.08
2017-01-12T00:06:43.893Z,924.07
2017-01-12T00:07:00.627Z,924.05
2017-01-12T00:07:17.339Z,924.03
2017-01-12T00:07:34.068Z,924.06
2017-01-12T00:07:50.759Z,924.06
2017-01-12T00:08:07.500Z,924.06
2017-01-12T00:08:24.214Z,924.07
2017-01-12T00:08:40.909Z,924.09
2017-01-12T00:08:57.623Z,924.05
2017-01-12T00:09:14.362Z,924.08
2017-01-12T00:09:31.087Z,924.07
2017-01-12T00:09:47.793Z,924.08
2017-01-12T00:10:04.516Z,924.06
2017-01-12T00:10:21.254Z,924.1
2017-01-12T00:10:37.958Z,924.09
2017-01-12T00:10:54.674Z,924.05
2017-01-12T00:11:12.031Z,924.1
2017-01-12T00:11:28.746Z,924.12
2017-01-12T00:11:45.457Z,924.06
2017-01-12T00:12:02.163Z,924.08
2017-01-12T00:12:18.852Z,924.08
2017-01-12T00:12:35.565Z,924.09
2017-01-12T00:12:52.273Z,924.06
2017-01-12T00:13:08.980Z,924.12
2017-01-12T00:13:25.749Z,924.1
2017-01-12T00:13:42.496Z,924.1
2017-01-12T00:13:59.193Z,924.08
2017-01-12T00:14:16.537Z,924.12
2017-01-12T00:14:33.239Z,924.15
2017-01-12T00:14:49.979Z,924.14
2017-01-12T00:15:06.698Z,924.17
2017-01-12T00:15:23.400Z,924.2
2017-01-12T00:15:40.111Z,924.17
2017-01-12T00:15:56.867Z,924.17
2017-01-12T00:16:13.588Z,924.19
2017-01-12T00:16:30.312Z,924.21
2017-01-12T00:16:47.052Z,924.21
2017-01-12T00:17:03.793Z,924.17
2017-01-12T00:17:21.070Z,924.17
2017-01-12T00:17:37.838Z,924.17
2017-01-12T00:17:54.563Z,924.21
2017-01-12T00:18:11.354Z,924.2
2017-01-12T00:18:28.099Z,924.17
2017-01-12T00:18:45.332Z,924.2
2017-01-12T00:19:02.036Z,924.22
2017-01-12T00:19:18.752Z,924.2
2017-01-12T00:19:35.468Z,924.22
2017-01-12T00:19:52.167Z,924.2
2017-01-12T00:20:08.913Z,924.19
2017-01-12T00:20:25.657Z,924.21
2017-01-12T00:20:42.343Z,924.22
2017-01-12T00:20:59.049Z,924.2
2017-01-12T00:21:15.777Z,924.18
2017-01-12T00:21:32.485Z,924.18
2017-01-12T00:21:49.198Z,924.18
2017-01-12T00:22:05.913Z,924.16
2017-01-12T00:22:22.595Z,924.18
2017-01-12T00:22:39.346Z,924.15
2017-01-12T00:22:56.053Z,924.14
2017-01-12T00:23:12.766Z,924.19
2017-01-12T00:23:29.491Z,924.19
2017-01-12T00:23:46.200Z,924.17
2017-01-12T00:24:02.882Z,924.18
2017-01-12T00:24:19.603Z,924.2
2017-01-12T00:24:36.325Z,924.2
2017-01-12T00:24:53.022Z,924.19
2017-01-12T00:25:09.731Z,924.2
2017-01-12T00:25:26.462Z,924.19
2017-01-12T00:25:43.179Z,924.19
2017-01-12T00:25:59.881Z,924.21
2017-01-12T00:26:16.592Z,924.19
2017-01-12T00:26:33.383Z,924.18
2017-01-12T00:26:50.401Z,924.18
2017-01-12T00:27:07.126Z,924.17
2017-01-12T00:27:23.846Z,924.18
2017-01-12T00:27:40.827Z,924.16
2017-01-12T00:27:57.584Z,924.17
2017-01-12T00:28:14.487Z,924.17
2017-01-12T00:28:31.296Z,924.21
2017-01-12T00:28:48.078Z,924.24
2017-01-12T00:29:04.799Z,924.23
2017-01-12T00:29:21.545Z,924.23
2017-01-12T00:29:38.340Z,924.19
2017-01-12T00:29:55.087Z,924.19
2017-01-12T00:30:12.712Z,924.17
2017-01-12T00:30:29.435Z,924.22
2017-01-12T00:30:46.153Z,924.18
2017-01-12T00:31:02.863Z,924.18
2017-01-12T00:31:19.622Z,924.22
2017-01-12T00:31:36.349Z,924.22
2017-01-12T00:31:53.113Z,924.18
2017-01-12T00:32:09.870Z,924.18
2017-01-12T00:32:26.664Z,924.19
2017-01-12T00:32:43.384Z,924.19
2017-01-12T00:33:00.103Z,924.21
2017-01-12T00:33:16.813Z,924.19
2017-01-12T00:33:33.589Z,924.2
2017-01-12T00:33:50.299Z,924.21
2017-01-12T00:34:06.999Z,924.14
2017-01-12T00:34:23.740Z,924.19
2017-01-12T00:34:40.441Z,924.17
2017-01-12T00:34:57.171Z,924.21
2017-01-12T00:35:14.335Z,924.22
2017-01-12T00:35:31.090Z,924.17
2017-01-12T00:35:47.791Z,924.18
2017-01-12T00:36:04.502Z,924.2
2017-01-12T00:36:21.276Z,924.15
2017-01-12T00:36:38.118Z,924.18
2017-01-12T00:36:54.853Z,924.17
2017-01-12T00:37:11.563Z,924.16
2017-01-12T00:37:28.349Z,924.17
2017-01-12T00:37:45.056Z,924.15
2017-01-12T00:38:01.783Z,924.14
2017-01-12T00:38:18.516Z,924.14
2017-01-12T00:38:35.405Z,924.17
2017-01-12T00:38:52.102Z,924.13
2017-01-12T00:39:08.817Z,924.11
2017-01-12T00:39:25.512Z,924.15
2017-01-12T00:39:42.207Z,924.16
2017-01-12T00:39:58.953Z,924.18
2017-01-12T00:40:15.734Z,924.17
2017-01-12T00:40:32.516Z,924.17
2017-01-12T00:40:49.241Z,924.15
2017-01-12T00:41:05.947Z,924.2
2017-01-12T00:41:22.733Z,924.2
2017-01-12T00:41:39.525Z,924.15
2017-01-12T00:41:56.237Z,924.16
2017-01-12T00:42:12.993Z,924.17
2017-01-12T00:42:29.765Z,924.19
2017-01-12T00:42:46.503Z,924.13
2017-01-12T00:43:03.203Z,924.15
2017-01-12T00:43:19.946Z,924.14
2017-01-12T00:43:36.675Z,924.14
2017-01-12T00:43:54.043Z,924.14
2017-01-12T00:44:10.796Z,924.15
2017-01-12T00:44:27.520Z,924.14
2017-01-12T00:44:44.274Z,924.11
2017-01-12T00:45:00.989Z,924.1
2017-01-12T00:45:18.318Z,924.08
2017-01-12T00:45:35.024Z,924.11
2017-01-12T00:45:51.728Z,924.11
2017-01-12T00:46:08.483Z,924.16
2017-01-12T00:46:25.197Z,924.15
2017-01-12T00:46:41.900Z,924.19
2017-01-12T00:46:58.689Z,924.18
2017-01-12T00:47:15.453Z,924.18
2017-01-12T00:47:32.150Z,924.15
2017-01-12T00:47:48.915Z,924.16
2017-01-12T00:48:05.679Z,924.21
2017-01-12T00:48:22.637Z,924.14
2017-01-12T00:48:39.340Z,924.17
2017-01-12T00:48:56.040Z,924.14
2017-01-12T00:49:27.254Z,924.15
2017-01-12T00:49:43.951Z,924.17
2017-01-12T00:50:00.664Z,924.18
2017-01-12T00:50:31.850Z,924.13
2017-01-12T00:50:48.604Z,924.14
2017-01-12T00:51:05.335Z,924.17
2017-01-12T00:51:22.069Z,924.19
2017-01-12T00:51:38.814Z,924.18
2017-01-12T00:51:55.616Z,924.23
2017-01-12T00:52:12.310Z,924.25
2017-01-12T00:52:29.037Z,924.23
2017-01-12T00:52:45.753Z,924.23
2017-01-12T00:53:03.067Z,924.24
2017-01-12T00:53:19.767Z,924.25
2017-01-12T00:53:36.494Z,924.24
2017-01-12T00:53:53.227Z,924.24
2017-01-12T00:54:09.940Z,924.26
2017-01-12T00:54:26.635Z,924.24
2017-01-12T00:54:43.426Z,924.26
2017-01-12T00:55:00.139Z,924.27
2017-01-12T00:55:17.879Z,924.28
2017-01-12T00:55:34.591Z,924.24
2017-01-12T00:55:51.311Z,924.25
2017-01-12T00:56:08.024Z,924.29
2017-01-12T00:56:24.785Z,924.3
2017-01-12T00:56:41.492Z,924.28
2017-01-12T00:56:58.244Z,924.26
2017-01-12T00:57:15.557Z,924.27
2017-01-12T00:57:32.263Z,924.27
2017-01-12T00:57:48.983Z,924.3
2017-01-12T00:58:05.702Z,924.24
2017-01-12T00:58:22.418Z,924.28
2017-01-12T00:58:39.143Z,924.26
2017-01-12T00:58:55.851Z,924.28
2017-01-12T00:59:12.556Z,924.27
2017-01-12T00:59:29.280Z,924.28
2017-01-12T00:59:46.005Z,924.31
2017-01-12T01:00:02.706Z,924.28
2017-01-12T01:00:19.434Z,924.29
2017-01-12T01:00:36.217Z,924.28
2017-01-12T01:00:52.941Z,924.31
2017-01-12T01:01:09.671Z,924.29
2017-01-12T01:01:26.409Z,924.31
2017-01-12T01:01:43.123Z,924.31
2017-01-12T01:01:59.820Z,924.29
2017-01-12T01:02:16.546Z,924.32
2017-01-12T01:02:33.249Z,924.34
2017-01-12T01:02:49.974Z,924.3
2017-01-12T01:03:07.880Z,924.36
2017-01-12T01:03:24.575Z,924.31
2017-01-12T01:03:41.292Z,924.34
2017-01-12T01:03:58.025Z,924.34
2017-01-12T01:04:14.748Z,924.32
2017-01-12T01:04:31.505Z,924.34
2017-01-12T01:04:48.822Z,924.32
2017-01-12T01:05:05.542Z,924.33
2017-01-12T01:05:22.864Z,924.37
2017-01-12T01:05:39.563Z,924.38
2017-01-12T01:05:56.250Z,924.38
2017-01-12T01:06:12.974Z,924.34
2017-01-12T01:06:29.673Z,924.38
2017-01-12T01:06:46.404Z,924.37
2017-01-12T01:07:03.116Z,924.38
2017-01-12T01:07:19.847Z,924.38
2017-01-12T01:07:36.573Z,924.36
2017-01-12T01:07:53.282Z,924.36
2017-01-12T01:08:10.584Z,924.38
2017-01-12T01:08:27.293Z,924.4
2017-01-12T01:08:44.016Z,924.4
2017-01-12T01:09:00.733Z,924.36
2017-01-12T01:09:17.436Z,924.38
2017-01-12T01:09:34.153Z,924.39
2017-01-12T01:09:50.861Z,924.41
2017-01-12T01:10:07.549Z,924.44
2017-01-12T01:10:24.229Z,924.46
2017-01-12T01:10:40.923Z,924.38
2017-01-12T01:10:57.644Z,924.38
2017-01-12T01:11:14.341Z,924.46
2017-01-12T01:11:31.028Z,924.44
2017-01-12T01:11:47.718Z,924.44
2017-01-12T01:12:04.410Z,924.43
2017-01-12T01:12:21.115Z,924.47
2017-01-12T01:12:37.809Z,924.44
2017-01-12T01:12:54.498Z,924.48
2017-01-12T01:13:11.161Z,924.44
2017-01-12T01:13:27.844Z,924.48
2017-01-12T01:13:44.521Z,924.43
2017-01-12T01:14:01.237Z,924.43
2017-01-12T01:14:17.966Z,924.4
2017-01-12T01:14:34.663Z,924.45
2017-01-12T01:14:51.350Z,924.47
2017-01-12T01:15:08.047Z,924.47
2017-01-12T01:15:24.738Z,924.44
2017-01-12T01:15:41.418Z,924.42
2017-01-12T01:15:58.115Z,924.46
2017-01-12T01:16:14.799Z,924.46
2017-01-12T01:16:31.483Z,924.46
2017-01-12T01:16:48.376Z,924.47
2017-01-12T01:17:05.061Z,924.46
2017-01-12T01:17:21.757Z,924.44
2017-01-12T01:17:38.699Z,924.5
2017-01-12T01:17:55.841Z,924.47
2017-01-12T01:18:12.539Z,924.48
2017-01-12T01:18:29.229Z,924.47
2017-01-12T01:18:45.929Z,924.48
2017-01-12T01:19:02.615Z,924.49
2017-01-12T01:19:19.332Z,924.47
2017-01-12T01:19:36.528Z,924.48
2017-01-12T01:19:53.217Z,924.5
2017-01-12T01:20:09.955Z,924.54
2017-01-12T01:20:26.686Z,924.5
2017-01-12T01:20:43.370Z,924.5
2017-01-12T01:21:00.062Z,924.55
2017-01-12T01:21:16.808Z,924.5
2017-01-12T01:21:33.781Z,924.52
2017-01-12T01:21:50.572Z,924.55
2017-01-12T01:22:07.297Z,924.55
2017-01-12T01:22:23.991Z,924.54
2017-01-12T01:22:41.254Z,924.56
2017-01-12T01:22:57.973Z,924.55
2017-01-12T01:23:14.734Z,924.56
2017-01-12T01:23:31.437Z,924.55
2017-01-12T01:23:48.173Z,924.55
2017-01-12T01:24:04.917Z,924.57
2017-01-12T01:24:21.588Z,924.6
2017-01-12T01:24:38.291Z,924.59
2017-01-12T01:24:54.970Z,924.57
2017-01-12T01:25:11.652Z,924.59
2017-01-12T01:25:28.333Z,924.58
2017-01-12T01:25:45.023Z,924.6
2017-01-12T01:26:01.717Z,924.64
2017-01-12T01:26:18.401Z,924.62
2017-01-12T01:26:35.083Z,924.62
2017-01-12T01:26:51.761Z,924.65
2017-01-12T01:27:08.451Z,924.6
2017-01-12T01:27:25.131Z,924.65
2017-01-12T01:27:41.824Z,924.64
2017-01-12T01:27:58.517Z,924.65
2017-01-12T01:28:15.306Z,924.65
2017-01-12T01:28:32.062Z,924.67
2017-01-12T01:28:48.853Z,924.72
2017-01-12T01:29:05.571Z,924.7
2017-01-12T01:29:22.261Z,924.69
2017-01-12T01:29:38.950Z,924.68
2017-01-12T01:29:55.671Z,924.7
2017-01-12T01:30:12.371Z,924.7
2017-01-12T01:30:29.058Z,924.74
2017-01-12T01:30:45.752Z,924.7
2017-01-12T01:31:02.748Z,924.73
2017-01-12T01:31:19.451Z,924.74
2017-01-12T01:31:36.145Z,924.77
2017-01-12T01:31:52.954Z,924.72
2017-01-12T01:32:09.713Z,924.77
2017-01-12T01:32:26.401Z,924.76
2017-01-12T01:32:43.084Z,924.78
2017-01-12T01:32:59.811Z,924.76
2017-01-12T01:33:16.592Z,924.8
2017-01-12T01:33:33.586Z,924.81
2017-01-12T01:33:50.308Z,924.79
2017-01-12T01:34:07.016Z,924.77
2017-01-12T01:34:23.749Z,924.77
2017-01-12T01:34:40.546Z,924.76
2017-01-12T01:34:57.227Z,924.74
2017-01-12T01:35:14.695Z,924.73
2017-01-12T01:35:31.391Z,924.78
2017-01-12T01:35:48.102Z,924.78
2017-01-12T01:36:04.786Z,924.8
2017-01-12T01:36:21.481Z,924.8
2017-01-12T01:36:38.249Z,924.78
2017-01-12T01:36:54.943Z,924.81
2017-01-12T01:37:11.656Z,924.8
2017-01-12T01:37:28.367Z,924.77
2017-01-12T01:37:45.054Z,924.82
2017-01-12T01:38:01.754Z,924.77
2017-01-12T01:38:18.443Z,924.79
2017-01-12T01:38:35.125Z,924.82
2017-01-12T01:38:51.825Z,924.82
2017-01-12T01:39:08.496Z,924.78
2017-01-12T01:39:25.190Z,924.81
2017-01-12T01:39:41.878Z,924.83
2017-01-12T01:39:58.616Z,924.85
2017-01-12T01:40:15.322Z,924.83
2017-01-12T01:40:32.034Z,924.82
2017-01-12T01:40:48.707Z,924.82
2017-01-12T01:41:05.393Z,924.82
2017-01-12T01:41:22.092Z,924.83
2017-01-12T01:41:38.777Z,924.82
2017-01-12T01:41:55.455Z,924.83
2017-01-12T01:42:12.124Z,924.88
2017-01-12T01:42:28.814Z,924.82
2017-01-12T01:42:45.503Z,924.82
2017-01-12T01:43:02.206Z,924.82
2017-01-12T01:43:18.895Z,924.82
2017-01-12T01:43:35.607Z,924.84
2017-01-12T01:43:52.301Z,924.85
2017-01-12T01:44:08.989Z,924.89
2017-01-12T01:44:25.660Z,924.85
2017-01-12T01:44:42.367Z,924.87
2017-01-12T01:44:59.053Z,924.88
2017-01-12T01:45:15.754Z,924.86
2017-01-12T01:45:32.451Z,924.86
2017-01-12T01:45:49.142Z,924.87
2017-01-12T01:46:05.854Z,924.86
2017-01-12T01:46:22.539Z,924.88
2017-01-12T01:46:39.247Z,924.84
2017-01-12T01:46:55.969Z,924.91
2017-01-12T01:47:12.679Z,924.87
2017-01-12T01:47:29.386Z,924.9
2017-01-12T01:47:46.098Z,924.93
2017-01-12T01:48:02.786Z,924.91
2017-01-12T01:48:20.049Z,924.94
2017-01-12T01:48:36.718Z,924.96
2017-01-12T01:48:53.450Z,924.96
2017-01-12T01:49:10.139Z,924.96
2017-01-12T01:49:27.013Z,924.97
2017-01-12T01:49:43.743Z,924.99
2017-01-12T01:50:00.433Z,924.96
2017-01-12T01:50:17.131Z,924.99
2017-01-12T01:50:33.826Z,924.99
2017-01-12T01:50:51.112Z,924.97
2017-01-12T01:51:07.788Z,924.96
2017-01-12T01:51:24.493Z,924.98
2017-01-12T01:51:41.203Z,924.99
2017-01-12T01:51:57.893Z,925.02
2017-01-12T01:52:14.583Z,924.99
2017-01-12T01:52:31.289Z,925.01
2017-01-12T01:52:47.998Z,924.99
2017-01-12T01:53:04.690Z,924.99
2017-01-12T01:53:21.394Z,925.03
2017-01-12T01:53:38.093Z,925
2017-01-12T01:53:54.791Z,925.04
2017-01-12T01:54:11.495Z,925.05
2017-01-12T01:54:28.200Z,925.01
2017-01-12T01:54:44.893Z,925.01
2017-01-12T01:55:01.567Z,925.04
2017-01-12T01:55:18.266Z,925.02
2017-01-12T01:55:34.938Z,925.04
2017-01-12T01:55:51.616Z,925.02
2017-01-12T01:56:08.286Z,924.96
2017-01-12T01:56:24.981Z,924.98
2017-01-12T01:56:41.853Z,925
2017-01-12T01:56:58.546Z,924.98
2017-01-12T01:57:15.247Z,924.97
2017-01-12T01:57:31.923Z,924.97
2017-01-12T01:57:48.614Z,924.96
2017-01-12T01:58:05.305Z,924.97
2017-01-12T01:58:22.005Z,924.97
2017-01-12T01:58:38.749Z,924.96
2017-01-12T01:58:55.465Z,924.92
2017-01-12T01:59:12.160Z,924.93
2017-01-12T01:59:28.853Z,924.93
2017-01-12T01:59:45.531Z,924.89
2017-01-12T02:00:02.408Z,924.92
2017-01-12T02:00:19.688Z,924.86
2017-01-12T02:00:36.387Z,924.88
2017-01-12T02:00:53.090Z,924.86
2017-01-12T02:01:09.793Z,924.87
2017-01-12T02:01:26.491Z,924.87
2017-01-12T02:01:43.180Z,924.82
2017-01-12T02:01:59.861Z,924.83
2017-01-12T02:02:16.550Z,924.86
2017-01-12T02:02:33.284Z,924.81
2017-01-12T02:02:49.975Z,924.8
2017-01-12T02:03:06.665Z,924.82
2017-01-12T02:03:23.352Z,924.83
2017-01-12T02:03:40.029Z,924.8
2017-01-12T02:03:56.703Z,924.8
2017-01-12T02:04:13.413Z,924.8
2017-01-12T02:04:30.122Z,924.77
2017-01-12T02:04:46.837Z,924.79
2017-01-12T02:05:03.533Z,924.79
2017-01-12T02:05:20.223Z,924.77
2017-01-12T02:05:36.912Z,924.77
2017-01-12T02:05:53.612Z,924.79
2017-01-12T02:06:10.315Z,924.77
2017-01-12T02:06:27.027Z,924.8
2017-01-12T02:06:43.723Z,924.77
2017-01-12T02:07:00.423Z,924.79
2017-01-12T02:07:17.115Z,924.8
2017-01-12T02:07:33.820Z,924.77
2017-01-12T02:07:50.552Z,924.76
2017-01-12T02:08:07.242Z,924.8
2017-01-12T02:08:23.927Z,924.8
2017-01-12T02:08:40.643Z,924.79
2017-01-12T02:08:57.325Z,924.81
2017-01-12T02:09:28.537Z,924.74
2017-01-12T02:09:45.475Z,924.75
2017-01-12T02:10:02.161Z,924.76
2017-01-12T02:10:18.904Z,924.77
2017-01-12T02:10:35.644Z,924.75
2017-01-12T02:10:52.322Z,924.77
2017-01-12T02:11:09.050Z,924.74
2017-01-12T02:11:26.008Z,924.76
2017-01-12T02:11:42.686Z,924.76
2017-01-12T02:11:59.390Z,924.74
2017-01-12T02:12:16.112Z,924.73
2017-01-12T02:12:32.898Z,924.75
2017-01-12T02:12:49.601Z,924.72
2017-01-12T02:13:06.338Z,924.72
2017-01-12T02:13:23.077Z,924.74
2017-01-12T02:13:39.778Z,924.74
2017-01-12T02:13:56.482Z,924.69
2017-01-12T02:14:13.795Z,924.69
2017-01-12T02:14:30.547Z,924.69
2017-01-12T02:14:47.238Z,924.69
2017-01-12T02:15:03.982Z,924.68
2017-01-12T02:15:21.303Z,924.67
2017-01-12T02:15:38.023Z,924.68
2017-01-12T02:15:54.706Z,924.69
2017-01-12T02:16:11.392Z,924.69
2017-01-12T02:16:28.092Z,924.66
2017-01-12T02:16:44.858Z,924.67
2017-01-12T02:17:01.575Z,924.66
2017-01-12T02:17:18.343Z,924.68
2017-01-12T02:17:35.038Z,924.7
2017-01-12T02:17:51.703Z,924.66
2017-01-12T02:18:08.478Z,924.68
2017-01-12T02:18:25.231Z,924.71
2017-01-12T02:18:41.917Z,924.72
2017-01-12T02:18:58.611Z,924.7
2017-01-12T02:19:15.342Z,924.68
2017-01-12T02:19:32.042Z,924.71
2017-01-12T02:19:49.358Z,924.69
2017-01-12T02:20:06.111Z,924.66
2017-01-12T02:20:22.904Z,924.66
2017-01-12T02:20:39.610Z,924.66
2017-01-12T02:20:56.326Z,924.66
2017-01-12T02:21:13.031Z,924.7
2017-01-12T02:21:29.747Z,924.68
2017-01-12T02:21:46.455Z,924.69
2017-01-12T02:22:03.152Z,924.68
2017-01-12T02:22:20.445Z,924.67
2017-01-12T02:22:37.141Z,924.67
2017-01-12T02:22:53.853Z,924.7
2017-01-12T02:23:10.554Z,924.71
2017-01-12T02:23:27.238Z,924.71
2017-01-12T02:23:44.003Z,924.7
2017-01-12T02:24:01.321Z,924.64
2017-01-12T02:24:18.026Z,924.69
2017-01-12T02:24:34.724Z,924.67
2017-01-12T02:24:51.455Z,924.69
2017-01-12T02:25:08.157Z,924.68
2017-01-12T02:25:24.881Z,924.68
2017-01-12T02:25:41.622Z,924.68
2017-01-12T02:25:58.460Z,924.69
2017-01-12T02:26:15.512Z,924.66
2017-01-12T02:26:32.281Z,924.66
2017-01-12T02:26:48.963Z,924.64
2017-01-12T02:27:05.740Z,924.64
2017-01-12T02:27:22.466Z,924.64
2017-01-12T02:27:39.149Z,924.63
2017-01-12T02:27:55.834Z,924.62
2017-01-12T02:28:13.013Z,924.58
2017-01-12T02:28:29.714Z,924.6
2017-01-12T02:28:46.392Z,924.59
2017-01-12T02:29:03.072Z,924.58
2017-01-12T02:29:19.769Z,924.56
2017-01-12T02:29:36.469Z,924.53
2017-01-12T02:29:53.148Z,924.55
2017-01-12T02:30:09.852Z,924.53
2017-01-12T02:30:26.537Z,924.55
2017-01-12T02:30:43.216Z,924.51
2017-01-12T02:30:59.922Z,924.48
2017-01-12T02:31:16.644Z,924.48
2017-01-12T02:31:33.330Z,924.48
2017-01-12T02:31:50.038Z,924.47
2017-01-12T02:32:06.717Z,924.47
2017-01-12T02:32:23.392Z,924.48
2017-01-12T02:32:40.081Z,924.48
2017-01-12T02:32:56.766Z,924.47
2017-01-12T02:33:13.462Z,924.45
2017-01-12T02:33:30.150Z,924.5
2017-01-12T02:33:46.855Z,924.47
2017-01-12T02:34:03.547Z,924.48
2017-01-12T02:34:20.230Z,924.47
2017-01-12T02:34:36.919Z,924.44
2017-01-12T02:34:53.610Z,924.46
2017-01-12T02:35:10.514Z,924.43
2017-01-12T02:35:27.194Z,924.43
2017-01-12T02:35:44.469Z,924.44
2017-01-12T02:36:01.147Z,924.43
2017-01-12T02:36:17.825Z,924.42
2017-01-12T02:36:34.507Z,924.46
2017-01-12T02:36:51.205Z,924.44
2017-01-12T02:37:07.881Z,924.4
2017-01-12T02:37:24.675Z,924.44
2017-01-12T02:37:41.376Z,924.41
2017-01-12T02:37:58.065Z,924.41
2017-01-12T02:38:14.835Z,924.43
2017-01-12T02:38:31.975Z,924.44
2017-01-12T02:38:48.670Z,924.41
2017-01-12T02:39:05.394Z,924.43
2017-01-12T02:39:22.138Z,924.39
2017-01-12T02:39:38.816Z,924.4
2017-01-12T02:39:55.491Z,924.43
2017-01-12T02:40:12.181Z,924.41
2017-01-12T02:40:28.858Z,924.44
2017-01-12T02:40:45.538Z,924.39
2017-01-12T02:41:02.218Z,924.43
2017-01-12T02:41:18.897Z,924.43
2017-01-12T02:41:35.616Z,924.4
2017-01-12T02:41:52.286Z,924.4
2017-01-12T02:42:09.059Z,924.4
2017-01-12T02:42:26.199Z,924.39
2017-01-12T02:42:42.997Z,924.4
2017-01-12T02:42:59.961Z,924.37
2017-01-12T02:43:16.723Z,924.35
2017-01-12T02:43:33.424Z,924.37
2017-01-12T02:43:50.136Z,924.39
2017-01-12T02:44:06.909Z,924.38
2017-01-12T02:44:23.593Z,924.38
2017-01-12T02:44:40.260Z,924.37
2017-01-12T02:44:57.028Z,924.38
2017-01-12T02:45:14.338Z,924.32
2017-01-12T02:45:31.041Z,924.37
2017-01-12T02:45:48.385Z,924.39
2017-01-12T02:46:05.106Z,924.37
2017-01-12T02:46:21.791Z,924.33
2017-01-12T02:46:38.500Z,924.33
2017-01-12T02:46:55.189Z,924.33
2017-01-12T02:47:11.877Z,924.32
2017-01-12T02:47:28.565Z,924.32
2017-01-12T02:47:45.246Z,924.29
2017-01-12T02:48:01.978Z,924.33
2017-01-12T02:48:18.674Z,924.31
2017-01-12T02:48:35.353Z,924.33
2017-01-12T02:48:52.127Z,924.34
2017-01-12T02:49:09.419Z,924.33
2017-01-12T02:49:26.120Z,924.34
2017-01-12T02:49:42.821Z,924.26
2017-01-12T02:49:59.514Z,924.28
2017-01-12T02:50:16.241Z,924.3
2017-01-12T02:50:32.940Z,924.3
2017-01-12T02:50:49.626Z,924.27
2017-01-12T02:51:06.356Z,924.28
2017-01-12T02:51:23.042Z,924.28
2017-01-12T02:51:39.736Z,924.3
2017-01-12T02:51:58.446Z,924.26
2017-01-12T02:52:15.157Z,924.25
2017-01-12T02:52:31.843Z,924.25
2017-01-12T02:52:48.539Z,924.26
2017-01-12T02:53:05.827Z,924.24
2017-01-12T02:53:22.563Z,924.25
2017-01-12T02:53:39.886Z,924.25
2017-01-12T02:53:56.589Z,924.26
2017-01-12T02:54:13.330Z,924.27
2017-01-12T02:54:30.009Z,924.28
2017-01-12T02:54:46.706Z,924.27
2017-01-12T02:55:03.423Z,924.3
2017-01-12T02:55:20.118Z,924.31
2017-01-12T02:55:36.805Z,924.31
2017-01-12T02:55:53.505Z,924.29
2017-01-12T02:56:10.244Z,924.27
2017-01-12T02:56:26.953Z,924.29
2017-01-12T02:56:43.647Z,924.29
2017-01-12T02:57:00.398Z,924.3
2017-01-12T02:57:17.090Z,924.27
2017-01-12T02:57:33.790Z,924.26
2017-01-12T02:57:50.498Z,924.29
2017-01-12T02:58:07.201Z,924.28
2017-01-12T02:58:23.902Z,924.29
2017-01-12T02:58:40.615Z,924.28
2017-01-12T02:58:57.300Z,924.31
2017-01-12T02:59:13.970Z,924.26
2017-01-12T02:59:30.661Z,924.27
2017-01-12T02:59:47.341Z,924.28
2017-01-12T03:00:04.021Z,924.27
2017-01-12T03:00:20.730Z,924.29
2017-01-12T03:00:39.099Z,924.24
2017-01-12T03:00:55.815Z,924.24
2017-01-12T03:01:12.499Z,924.27
2017-01-12T03:01:29.211Z,924.25
2017-01-12T03:01:45.892Z,924.25
2017-01-12T03:02:02.580Z,924.22
2017-01-12T03:02:19.284Z,924.25
2017-01-12T03:02:36.024Z,924.22
2017-01-12T03:02:52.725Z,924.23
2017-01-12T03:03:09.418Z,924.2
2017-01-12T03:03:26.120Z,924.23
2017-01-12T03:03:42.856Z,924.19
2017-01-12T03:03:59.547Z,924.23
2017-01-12T03:04:16.237Z,924.19
2017-01-12T03:04:32.935Z,924.19
2017-01-12T03:04:49.641Z,924.2
2017-01-12T03:05:06.338Z,924.2
2017-01-12T03:05:23.053Z,924.2
2017-01-12T03:05:39.757Z,924.2
2017-01-12T03:05:56.466Z,924.18
2017-01-12T03:06:13.172Z,924.18
2017-01-12T03:06:29.856Z,924.2
2017-01-12T03:06:46.548Z,924.16
2017-01-12T03:07:03.228Z,924.21
2017-01-12T03:07:19.911Z,924.19
2017-01-12T03:07:36.625Z,924.19
2017-01-12T03:07:53.325Z,924.2
2017-01-12T03:08:10.017Z,924.2
2017-01-12T03:08:26.708Z,924.19
2017-01-12T03:08:43.392Z,924.2
2017-01-12T03:09:00.090Z,924.19
2017-01-12T03:09:16.772Z,924.19
2017-01-12T03:09:33.477Z,924.17
2017-01-12T03:09:50.170Z,924.18
2017-01-12T03:10:06.850Z,924.2
2017-01-12T03:10:23.558Z,924.19
2017-01-12T03:10:40.835Z,924.17
2017-01-12T03:10:57.545Z,924.16
2017-01-12T03:11:14.239Z,924.14
2017-01-12T03:11:30.928Z,924.14
2017-01-12T03:11:47.611Z,924.18
2017-01-12T03:12:04.326Z,924.16
2017-01-12T03:12:21.005Z,924.15
2017-01-12T03:12:37.708Z,924.18
2017-01-12T03:12:54.476Z,924.17
2017-01-12T03:13:11.172Z,924.16
2017-01-12T03:13:27.911Z,924.18
2017-01-12T03:13:45.784Z,924.15
2017-01-12T03:14:02.490Z,924.17
2017-01-12T03:14:19.181Z,924.15
2017-01-12T03:14:35.865Z,924.14
2017-01-12T03:14:52.550Z,924.15
2017-01-12T03:15:09.264Z,924.14
2017-01-12T03:15:25.947Z,924.16
2017-01-12T03:15:42.657Z,924.15
2017-01-12T03:15:59.365Z,924.1
2017-01-12T03:16:16.059Z,924.08
2017-01-12T03:16:32.754Z,924.09
2017-01-12T03:16:49.682Z,924.07
2017-01-12T03:17:06.390Z,924.03
2017-01-12T03:17:23.674Z,924.04
2017-01-12T03:17:40.377Z,924
2017-01-12T03:17:57.084Z,924.01
2017-01-12T03:18:13.787Z,923.98
2017-01-12T03:18:30.480Z,924
2017-01-12T03:18:47.160Z,923.98
2017-01-12T03:19:03.855Z,923.99
2017-01-12T03:19:20.586Z,923.96
2017-01-12T03:19:37.283Z,923.97
2017-01-12T03:19:53.976Z,923.98
2017-01-12T03:20:10.695Z,923.99
2017-01-12T03:20:27.372Z,923.97
2017-01-12T03:20:44.058Z,923.95
2017-01-12T03:21:01.352Z,923.96
2017-01-12T03:21:18.033Z,923.97
2017-01-12T03:21:34.712Z,923.91
2017-01-12T03:21:51.406Z,923.92
2017-01-12T03:22:08.088Z,923.92
2017-01-12T03:22:24.772Z,923.94
2017-01-12T03:22:41.494Z,923.93
2017-01-12T03:22:58.773Z,923.95
2017-01-12T03:23:15.459Z,923.98
2017-01-12T03:23:32.158Z,924
2017-01-12T03:23:48.876Z,923.97
2017-01-12T03:24:05.548Z,923.98
2017-01-12T03:24:22.241Z,923.99
2017-01-12T03:24:38.951Z,923.99
2017-01-12T03:24:55.654Z,923.98
2017-01-12T03:25:12.338Z,924
2017-01-12T03:25:29.019Z,923.98
2017-01-12T03:25:45.728Z,923.99
2017-01-12T03:26:02.411Z,923.96
2017-01-12T03:26:19.117Z,923.95
2017-01-12T03:26:35.809Z,923.94
2017-01-12T03:26:52.509Z,923.95
2017-01-12T03:27:09.183Z,923.97
2017-01-12T03:27:25.881Z,923.94
2017-01-12T03:27:42.569Z,923.95
2017-01-12T03:27:59.258Z,923.92
2017-01-12T03:28:15.947Z,923.9
2017-01-12T03:28:32.631Z,923.93
2017-01-12T03:28:49.317Z,923.96
2017-01-12T03:29:06.012Z,923.88
2017-01-12T03:29:22.694Z,923.87
2017-01-12T03:29:39.398Z,923.89
2017-01-12T03:29:56.097Z,923.84
2017-01-12T03:30:12.796Z,923.85
2017-01-12T03:30:29.495Z,923.9
2017-01-12T03:30:46.540Z,923.89
2017-01-12T03:31:03.223Z,923.88